createdAt,value
2019-04-28T00:01:58.703Z,9.20
2019-04-28T00:04:03.385Z,9.30
2019-04-28T00:06:07.553Z,9.20
2019-04-28T00:08:11.488Z,9.20
2019-04-28T00:10:15.555Z,9.20
2019-04-28T00:12:21.355Z,9.20
2019-04-28T00:14:25.111Z,9.20
2019-04-28T00:16:30.786Z,9.20
2019-04-28T00:18:34.691Z,9.20
2019-04-28T00:20:57.732Z,9.10
2019-04-28T00:23:11.716Z,9.20
2019-04-28T00:25:25.408Z,9.10
2019-04-28T00:27:29.411Z,9.10
2019-04-28T00:29:40.337Z,9.10
2019-04-28T00:31:41.198Z,9.00
2019-04-28T00:33:45.048Z,9.00
2019-04-28T00:35:49.084Z,9.00
2019-04-28T00:37:53.036Z,9.00
2019-04-28T00:39:57.226Z,8.90
2019-04-28T00:42:03.062Z,8.90
2019-04-28T00:44:07.052Z,9.00
2019-04-28T00:46:12.492Z,9.00
2019-04-28T00:48:16.556Z,9.00
2019-04-28T00:50:21.714Z,9.00
2019-04-28T00:52:25.899Z,9.00
2019-04-28T00:54:31.670Z,8.90
2019-04-28T00:56:35.863Z,8.90
2019-04-28T00:58:41.573Z,9.00
2019-04-28T01:00:47.208Z,9.00
2019-04-28T01:02:51.248Z,9.00
2019-04-28T01:04:55.291Z,9.00
2019-04-28T01:06:59.195Z,9.00
2019-04-28T01:09:03.835Z,9.10
2019-04-28T01:11:08.139Z,9.10
2019-04-28T01:13:12.231Z,9.00
2019-04-28T01:15:26.375Z,9.00
2019-04-28T01:17:42.028Z,9.00
2019-04-28T01:19:49.606Z,8.90
2019-04-28T01:22:11.227Z,9.00
2019-04-28T01:24:15.268Z,9.00
2019-04-28T01:26:20.034Z,8.90
2019-04-28T01:28:24.102Z,9.00
2019-04-28T01:30:39.981Z,9.00
2019-04-28T01:32:49.884Z,8.90
2019-04-28T01:34:53.840Z,8.90
2019-04-28T01:36:59.371Z,9.00
2019-04-28T01:39:04.854Z,9.00
2019-04-28T01:41:09.839Z,8.90
2019-04-28T01:43:14.123Z,8.90
2019-04-28T01:45:20.415Z,9.00
2019-04-28T01:47:24.310Z,8.90
2019-04-28T01:49:29.509Z,9.00
2019-04-28T01:51:33.491Z,9.00
2019-04-28T01:53:39.458Z,9.00
2019-04-28T01:55:43.284Z,8.90
2019-04-28T01:57:47.245Z,9.00
2019-04-28T01:59:51.233Z,8.90
2019-04-28T02:01:55.182Z,9.00
2019-04-28T02:04:00.244Z,9.00
2019-04-28T02:06:04.739Z,9.00
2019-04-28T02:08:10.170Z,9.00
2019-04-28T02:10:14.647Z,9.00
2019-04-28T02:12:20.389Z,9.00
2019-04-28T02:14:24.507Z,8.90
2019-04-28T02:16:29.585Z,8.90
2019-04-28T02:18:33.726Z,8.90
2019-04-28T02:20:39.769Z,8.90
2019-04-28T02:22:55.952Z,8.90
2019-04-28T02:25:00.337Z,8.90
2019-04-28T02:27:05.022Z,9.00
2019-04-28T02:29:10.221Z,9.00
2019-04-28T02:31:14.327Z,8.90
2019-04-28T02:33:20.965Z,8.90
2019-04-28T02:35:23.972Z,8.90
2019-04-28T02:37:30.349Z,8.90
2019-04-28T02:39:33.623Z,8.90
2019-04-28T02:41:37.636Z,8.90
2019-04-28T02:43:41.614Z,8.90
2019-04-28T02:45:45.950Z,8.80
2019-04-28T02:47:52.551Z,8.80
2019-04-28T02:50:20.929Z,8.80
2019-04-28T02:52:42.227Z,8.80
2019-04-28T02:54:46.090Z,8.80
2019-04-28T02:56:51.009Z,8.80
2019-04-28T02:58:55.211Z,8.70
2019-04-28T03:01:11.226Z,8.80
2019-04-28T03:03:05.123Z,8.80
2019-04-28T03:05:11.658Z,8.70
2019-04-28T03:07:14.852Z,8.70
2019-04-28T03:09:20.247Z,8.60
2019-04-28T03:11:24.514Z,8.60
2019-04-28T03:13:31.113Z,8.50
2019-04-28T03:15:34.695Z,8.50
2019-04-28T03:17:40.750Z,8.50
2019-04-28T03:19:44.373Z,8.50
2019-04-28T03:21:50.856Z,8.50
2019-04-28T03:23:54.372Z,8.50
2019-04-28T03:26:04.316Z,8.50
2019-04-28T03:28:26.062Z,8.50
2019-04-28T03:30:48.096Z,8.50
2019-04-28T03:32:59.029Z,8.40
2019-04-28T03:35:02.299Z,8.50
2019-04-28T03:37:03.844Z,8.40
2019-04-28T03:39:10.837Z,8.40
2019-04-28T03:41:13.926Z,8.30
2019-04-28T03:43:20.989Z,8.30
2019-04-28T03:45:30.639Z,8.40
2019-04-28T03:47:34.470Z,8.30
2019-04-28T03:49:42.705Z,8.30
2019-04-28T03:51:44.088Z,8.40
2019-04-28T03:53:50.556Z,8.30
2019-04-28T03:55:53.658Z,8.40
2019-04-28T03:57:57.550Z,8.40
2019-04-28T04:00:01.916Z,8.40
2019-04-28T04:02:06.189Z,8.40
2019-04-28T04:04:11.309Z,8.40
2019-04-28T04:06:15.392Z,8.40
2019-04-28T04:08:21.010Z,8.40
2019-04-28T04:10:43.438Z,8.40
2019-04-28T04:13:00.674Z,8.40
2019-04-28T04:15:27.333Z,8.40
2019-04-28T04:17:41.118Z,8.40
2019-04-28T04:19:44.120Z,8.40
2019-04-28T04:21:52.272Z,8.40
2019-04-28T04:23:53.583Z,8.30
2019-04-28T04:25:57.524Z,8.30
2019-04-28T04:28:03.852Z,8.30
2019-04-28T04:30:07.020Z,8.30
2019-04-28T04:32:20.499Z,8.30
2019-04-28T04:34:16.512Z,8.40
2019-04-28T04:36:21.061Z,8.40
2019-04-28T04:38:25.242Z,8.40
2019-04-28T04:40:31.852Z,8.40
2019-04-28T04:42:34.629Z,8.30
2019-04-28T04:44:41.357Z,8.30
2019-04-28T04:46:44.405Z,8.30
2019-04-28T04:48:50.579Z,8.30
2019-04-28T04:50:53.811Z,8.30
2019-04-28T04:52:57.670Z,8.40
2019-04-28T04:55:01.555Z,8.40
2019-04-28T04:57:05.716Z,8.40
2019-04-28T04:59:10.272Z,8.30
2019-04-28T05:01:42.602Z,8.30
2019-04-28T05:03:49.746Z,8.30
2019-04-28T05:05:53.878Z,8.40
2019-04-28T05:07:57.768Z,8.30
2019-04-28T05:10:01.621Z,8.30
2019-04-28T05:12:05.527Z,8.30
2019-04-28T05:14:11.689Z,8.20
2019-04-28T05:16:15.206Z,8.30
2019-04-28T05:18:19.977Z,8.30
2019-04-28T05:20:24.072Z,8.20
2019-04-28T05:22:30.007Z,8.20
2019-04-28T05:24:46.249Z,8.20
2019-04-28T05:26:49.620Z,8.20
2019-04-28T05:28:54.259Z,8.10
2019-04-28T05:30:59.983Z,8.00
2019-04-28T05:33:03.791Z,8.10
2019-04-28T05:35:07.820Z,7.90
2019-04-28T05:37:11.931Z,7.90
2019-04-28T05:39:16.333Z,7.90
2019-04-28T05:41:20.175Z,7.90
2019-04-28T05:43:24.047Z,7.90
2019-04-28T05:45:29.650Z,7.80
2019-04-28T05:47:33.620Z,7.80
2019-04-28T05:49:51.463Z,7.80
2019-04-28T05:51:58.276Z,7.80
2019-04-28T05:54:27.511Z,7.80
2019-04-28T05:56:39.925Z,7.80
2019-04-28T05:58:47.206Z,7.90
2019-04-28T06:01:10.264Z,7.90
2019-04-28T06:03:15.183Z,7.90
2019-04-28T06:05:20.029Z,7.90
2019-04-28T06:07:33.224Z,7.90
2019-04-28T06:09:41.027Z,7.90
2019-04-28T06:11:44.861Z,7.90
2019-04-28T06:13:50.076Z,7.90
2019-04-28T06:15:54.411Z,7.80
2019-04-28T06:18:00.028Z,7.90
2019-04-28T06:20:05.805Z,7.90
2019-04-28T06:22:09.924Z,7.90
2019-04-28T06:24:13.777Z,7.80
2019-04-28T06:26:17.807Z,7.80
2019-04-28T06:28:21.636Z,7.80
2019-04-28T06:30:25.733Z,7.80
2019-04-28T06:32:29.711Z,7.90
2019-04-28T06:34:33.699Z,7.90
2019-04-28T06:36:37.536Z,7.90
2019-04-28T06:38:41.516Z,8.00
2019-04-28T06:40:45.422Z,8.00
2019-04-28T06:42:49.250Z,8.10
2019-04-28T06:44:53.187Z,8.10
2019-04-28T06:46:57.121Z,8.10
2019-04-28T06:49:01.142Z,8.10
2019-04-28T06:51:05.075Z,8.10
2019-04-28T06:53:08.901Z,8.10
2019-04-28T06:55:12.868Z,8.10
2019-04-28T06:57:16.723Z,8.20
2019-04-28T06:59:20.659Z,8.00
2019-04-28T07:01:24.583Z,8.10
2019-04-28T07:03:28.730Z,8.10
2019-04-28T07:05:32.635Z,8.10
2019-04-28T07:07:36.579Z,8.10
2019-04-28T07:09:40.503Z,8.10
2019-04-28T07:11:44.421Z,8.10
2019-04-28T07:13:48.337Z,8.10
2019-04-28T07:15:52.323Z,8.00
2019-04-28T07:17:56.328Z,8.10
2019-04-28T07:20:14.422Z,8.00
2019-04-28T07:22:22.610Z,8.10
2019-04-28T07:24:26.775Z,8.10
2019-04-28T07:26:30.847Z,8.20
2019-04-28T07:28:34.775Z,8.10
2019-04-28T07:30:40.951Z,8.10
2019-04-28T07:32:44.819Z,8.10
2019-04-28T07:34:48.691Z,8.10
2019-04-28T07:36:52.599Z,8.00
2019-04-28T07:38:56.535Z,8.10
2019-04-28T07:41:00.368Z,8.10
2019-04-28T07:43:04.372Z,8.10
2019-04-28T07:45:08.814Z,8.10
2019-04-28T07:47:12.635Z,8.20
2019-04-28T07:49:16.572Z,8.20
2019-04-28T07:51:22.055Z,8.20
2019-04-28T07:53:51.039Z,8.20
2019-04-28T07:55:55.147Z,8.20
2019-04-28T07:58:00.016Z,8.10
2019-04-28T08:00:05.342Z,8.20
2019-04-28T08:02:09.215Z,8.10
2019-04-28T08:04:13.140Z,8.10
2019-04-28T08:06:17.060Z,8.00
2019-04-28T08:08:21.083Z,7.90
2019-04-28T08:10:29.459Z,7.90
2019-04-28T08:12:34.958Z,7.80
2019-04-28T08:14:45.671Z,7.70
2019-04-28T08:16:50.675Z,7.70
2019-04-28T08:18:56.816Z,7.80
2019-04-28T08:21:01.796Z,7.80
2019-04-28T08:23:09.671Z,7.90
2019-04-28T08:25:14.989Z,8.00
2019-04-28T08:27:19.451Z,8.00
2019-04-28T08:29:24.162Z,8.10
2019-04-28T08:31:39.516Z,8.10
2019-04-28T08:34:01.839Z,8.00
2019-04-28T08:35:57.279Z,8.00
2019-04-28T08:38:01.812Z,8.00
2019-04-28T08:40:06.683Z,7.90
2019-04-28T08:42:11.211Z,7.90
2019-04-28T08:44:17.227Z,8.00
2019-04-28T08:46:21.777Z,8.10
2019-04-28T08:48:26.221Z,8.20
2019-04-28T08:50:31.287Z,8.00
2019-04-28T08:52:36.196Z,7.90
2019-04-28T08:54:42.688Z,7.80
2019-04-28T08:56:47.077Z,7.80
2019-04-28T08:58:51.765Z,7.90
2019-04-28T09:00:57.015Z,8.00
2019-04-28T09:03:06.221Z,8.00
2019-04-28T09:05:09.419Z,8.10
2019-04-28T09:07:14.718Z,8.00
2019-04-28T09:09:21.618Z,8.00
2019-04-28T09:11:25.876Z,8.00
2019-04-28T09:13:30.359Z,7.90
2019-04-28T09:15:35.330Z,7.80
2019-04-28T09:17:40.734Z,7.80
2019-04-28T09:19:45.711Z,7.70
2019-04-28T09:21:52.194Z,7.90
2019-04-28T09:23:56.110Z,7.90
2019-04-28T09:26:00.012Z,7.80
2019-04-28T09:28:04.411Z,7.60
2019-04-28T09:30:08.705Z,7.70
2019-04-28T09:32:12.550Z,7.60
2019-04-28T09:34:27.800Z,7.60
2019-04-28T09:36:22.447Z,7.70
2019-04-28T09:38:26.565Z,7.80
2019-04-28T09:40:30.691Z,7.80
2019-04-28T09:42:56.351Z,7.80
2019-04-28T09:45:01.318Z,7.80
2019-04-28T09:47:05.460Z,7.80
2019-04-28T09:49:09.363Z,7.60
2019-04-28T09:51:13.407Z,7.60
2019-04-28T09:53:17.598Z,7.50
2019-04-28T09:55:21.527Z,7.70
2019-04-28T09:57:25.393Z,7.80
2019-04-28T09:59:30.817Z,7.80
2019-04-28T10:01:34.839Z,7.80
2019-04-28T10:03:38.956Z,7.90
2019-04-28T10:05:43.235Z,7.70
2019-04-28T10:07:48.516Z,7.90
2019-04-28T10:09:52.576Z,8.10
2019-04-28T10:11:56.541Z,8.20
2019-04-28T10:14:01.461Z,8.40
2019-04-28T10:16:05.767Z,8.50
2019-04-28T10:18:09.789Z,8.50
2019-04-28T10:20:13.801Z,8.20
2019-04-28T10:22:17.666Z,8.40
2019-04-28T10:24:21.641Z,8.40
2019-04-28T10:26:25.739Z,8.60
2019-04-28T10:28:29.838Z,8.70
2019-04-28T10:30:33.739Z,8.80
2019-04-28T10:32:37.603Z,8.70
2019-04-28T10:34:54.067Z,8.70
2019-04-28T10:36:47.233Z,8.60
2019-04-28T10:38:52.723Z,8.50
2019-04-28T10:41:13.457Z,8.50
2019-04-28T10:43:17.673Z,8.50
2019-04-28T10:45:24.443Z,8.50
2019-04-28T10:47:30.153Z,8.80
2019-04-28T10:49:34.571Z,8.70
2019-04-28T10:51:38.643Z,8.70
2019-04-28T10:53:42.567Z,8.80
2019-04-28T10:55:46.483Z,8.90
2019-04-28T10:57:50.399Z,8.80
2019-04-28T10:59:54.232Z,8.90
2019-04-28T11:01:58.416Z,8.90
2019-04-28T11:04:09.217Z,9.00
2019-04-28T11:06:13.192Z,9.00
2019-04-28T11:08:51.603Z,9.00
2019-04-28T11:10:56.686Z,9.20
2019-04-28T11:13:00.773Z,9.40
2019-04-28T11:15:07.309Z,9.50
2019-04-28T11:17:11.543Z,9.70
2019-04-28T11:19:15.370Z,9.80
2019-04-28T11:21:19.442Z,9.90
2019-04-28T11:23:23.457Z,9.90
2019-04-28T11:25:27.451Z,9.90
2019-04-28T11:27:31.451Z,9.90
2019-04-28T11:29:35.272Z,9.80
2019-04-28T11:31:39.247Z,9.70
2019-04-28T11:34:05.191Z,9.80
2019-04-28T11:36:09.251Z,10.00
2019-04-28T11:38:13.303Z,10.10
2019-04-28T11:40:17.237Z,10.10
2019-04-28T11:42:21.225Z,10.20
2019-04-28T11:44:25.248Z,10.20
2019-04-28T11:46:29.239Z,10.40
2019-04-28T11:48:33.245Z,10.20
2019-04-28T11:50:37.156Z,10.20
2019-04-28T11:52:41.042Z,10.30
2019-04-28T11:54:44.943Z,10.30
2019-04-28T11:56:48.879Z,10.40
2019-04-28T11:58:52.838Z,10.40
2019-04-28T12:00:56.835Z,10.30
2019-04-28T12:03:01.039Z,10.30
2019-04-28T12:05:05.816Z,10.10
2019-04-28T12:07:09.815Z,9.90
2019-04-28T12:09:31.628Z,10.00
2019-04-28T12:11:38.854Z,10.20
2019-04-28T12:13:52.248Z,10.20
2019-04-28T12:16:18.165Z,10.40
2019-04-28T12:18:43.472Z,10.50
2019-04-28T12:20:47.463Z,10.60
2019-04-28T12:22:51.319Z,10.50
2019-04-28T12:24:55.216Z,10.40
2019-04-28T12:26:59.139Z,10.50
2019-04-28T12:29:03.135Z,10.40
2019-04-28T12:31:06.988Z,10.70
2019-04-28T12:33:10.860Z,11.00
2019-04-28T12:35:15.082Z,10.90
2019-04-28T12:37:18.987Z,11.10
2019-04-28T12:39:22.963Z,11.40
2019-04-28T12:41:26.900Z,11.90
2019-04-28T12:43:30.764Z,11.80
2019-04-28T12:45:35.523Z,11.30
2019-04-28T12:47:39.643Z,10.80
2019-04-28T12:49:54.611Z,10.50
2019-04-28T12:51:58.525Z,10.60
2019-04-28T12:54:05.144Z,10.50
2019-04-28T12:56:09.160Z,10.40
2019-04-28T12:58:13.001Z,10.30
2019-04-28T13:00:29.005Z,10.20
2019-04-28T13:03:00.323Z,10.20
2019-04-28T13:05:09.015Z,10.10
2019-04-28T13:07:13.900Z,10.00
2019-04-28T13:09:17.815Z,10.20
2019-04-28T13:11:21.669Z,10.30
2019-04-28T13:13:25.749Z,10.50
2019-04-28T13:15:29.717Z,10.50
2019-04-28T13:17:33.542Z,10.60
2019-04-28T13:19:37.603Z,10.70
2019-04-28T13:21:41.452Z,10.80
2019-04-28T13:23:45.354Z,10.80
2019-04-28T13:25:49.231Z,10.70
2019-04-28T13:27:53.068Z,10.80
2019-04-28T13:29:56.979Z,10.90
2019-04-28T13:32:01.176Z,10.90
2019-04-28T13:34:06.793Z,10.80
2019-04-28T13:36:15.041Z,10.90
2019-04-28T13:38:16.397Z,11.10
2019-04-28T13:40:26.010Z,11.10
2019-04-28T13:42:29.895Z,11.50
2019-04-28T13:44:59.989Z,11.60
2019-04-28T13:47:04.302Z,11.50
2019-04-28T13:49:10.453Z,11.50
2019-04-28T13:51:14.500Z,11.50
2019-04-28T13:53:18.496Z,11.50
2019-04-28T13:55:53.930Z,11.60
2019-04-28T13:57:59.444Z,11.70
2019-04-28T14:00:05.356Z,11.80
2019-04-28T14:02:18.841Z,11.90
2019-04-28T14:04:32.117Z,12.00
2019-04-28T14:06:39.431Z,12.00
2019-04-28T14:08:43.382Z,12.10
2019-04-28T14:10:47.424Z,12.00
2019-04-28T14:12:51.319Z,11.70
2019-04-28T14:14:55.246Z,11.90
2019-04-28T14:16:59.322Z,12.20
2019-04-28T14:19:03.314Z,12.30
2019-04-28T14:21:08.003Z,12.10
2019-04-28T14:23:12.125Z,12.30
2019-04-28T14:25:16.059Z,12.10
2019-04-28T14:27:20.059Z,12.10
2019-04-28T14:29:23.938Z,12.50
2019-04-28T14:31:27.851Z,12.70
2019-04-28T14:33:31.727Z,12.90
2019-04-28T14:35:35.707Z,13.10
2019-04-28T14:37:39.698Z,13.00
2019-04-28T14:39:43.574Z,12.90
2019-04-28T14:41:47.394Z,12.70
2019-04-28T14:43:51.467Z,12.60
2019-04-28T14:45:55.609Z,13.00
2019-04-28T14:47:59.762Z,13.30
2019-04-28T14:50:04.241Z,13.90
2019-04-28T14:52:08.451Z,14.40
2019-04-28T14:54:12.399Z,14.70
2019-04-28T14:56:16.410Z,15.10
2019-04-28T14:58:20.282Z,14.80
2019-04-28T15:00:30.171Z,14.40
2019-04-28T15:02:46.822Z,14.10
2019-04-28T15:04:58.403Z,13.50
2019-04-28T15:07:07.715Z,14.60
2019-04-28T15:09:32.604Z,15.30
2019-04-28T15:11:48.111Z,15.60
2019-04-28T15:13:55.142Z,15.80
2019-04-28T15:15:57.583Z,16.10
2019-04-28T15:18:01.678Z,15.80
2019-04-28T15:20:05.973Z,15.30
2019-04-28T15:22:09.855Z,14.90
2019-04-28T15:24:13.735Z,15.20
2019-04-28T15:26:17.603Z,15.90
2019-04-28T15:28:21.507Z,16.20
2019-04-28T15:30:25.352Z,15.80
2019-04-28T15:32:29.269Z,16.30
2019-04-28T15:34:33.205Z,16.90
2019-04-28T15:36:37.064Z,17.00
2019-04-28T15:38:41.112Z,16.40
2019-04-28T15:40:45.027Z,15.90
2019-04-28T15:42:49.030Z,16.40
2019-04-28T15:44:53.048Z,16.10
2019-04-28T15:46:57.038Z,16.20
2019-04-28T15:49:01.041Z,16.40
2019-04-28T15:51:05.207Z,16.00
2019-04-28T15:53:09.191Z,15.70
2019-04-28T15:55:17.083Z,15.30
2019-04-28T15:57:20.983Z,15.50
2019-04-28T15:59:25.564Z,16.10
2019-04-28T16:01:29.515Z,16.70
2019-04-28T16:03:33.484Z,16.90
2019-04-28T16:05:37.459Z,16.90
2019-04-28T16:07:41.399Z,17.40
2019-04-28T16:09:45.276Z,17.20
2019-04-28T16:11:49.103Z,17.20
2019-04-28T16:13:53.012Z,17.10
2019-04-28T16:15:56.944Z,17.30
2019-04-28T16:18:00.764Z,16.10
2019-04-28T16:20:05.342Z,16.80
2019-04-28T16:22:09.168Z,16.80
2019-04-28T16:24:13.108Z,17.50
2019-04-28T16:26:17.394Z,17.30
2019-04-28T16:28:21.316Z,17.00
2019-04-28T16:30:25.344Z,17.20
2019-04-28T16:32:29.230Z,17.30
2019-04-28T16:34:33.126Z,17.80
2019-04-28T16:36:37.086Z,17.80
2019-04-28T16:38:40.923Z,17.80
2019-04-28T16:40:52.251Z,17.80
2019-04-28T16:43:00.135Z,17.30
2019-04-28T16:45:04.443Z,17.50
2019-04-28T16:47:08.351Z,17.40
2019-04-28T16:49:12.234Z,17.00
2019-04-28T16:51:16.207Z,16.50
2019-04-28T16:53:20.208Z,16.60
2019-04-28T16:55:28.399Z,16.70
2019-04-28T16:57:39.198Z,17.30
2019-04-28T16:59:58.855Z,17.20
2019-04-28T17:02:07.364Z,17.60
2019-04-28T17:04:11.418Z,17.90
2019-04-28T17:06:15.233Z,17.80
2019-04-28T17:08:20.243Z,17.70
2019-04-28T17:10:24.233Z,18.40
2019-04-28T17:12:28.131Z,17.50
2019-04-28T17:14:32.151Z,17.10
2019-04-28T17:16:36.218Z,16.80
2019-04-28T17:18:40.115Z,17.20
2019-04-28T17:20:43.978Z,17.10
2019-04-28T17:22:48.357Z,16.80
2019-04-28T17:24:52.390Z,16.60
2019-04-28T17:26:56.272Z,16.40
2019-04-28T17:29:00.155Z,16.10
2019-04-28T17:31:04.268Z,15.40
2019-04-28T17:33:08.288Z,15.70
2019-04-28T17:35:12.572Z,15.50
2019-04-28T17:37:16.981Z,16.10
2019-04-28T17:39:22.411Z,15.90
2019-04-28T17:41:26.782Z,15.90
2019-04-28T17:43:30.798Z,15.60
2019-04-28T17:45:34.784Z,15.70
2019-04-28T17:47:38.688Z,15.90
2019-04-28T17:49:43.824Z,15.90
2019-04-28T17:51:47.747Z,15.60
2019-04-28T17:53:51.954Z,15.70
2019-04-28T17:55:55.809Z,15.40
2019-04-28T17:57:59.846Z,15.50
2019-04-28T18:00:07.084Z,15.50
2019-04-28T18:02:39.038Z,15.40
2019-04-28T18:05:09.504Z,15.20
2019-04-28T18:07:21.314Z,14.90
2019-04-28T18:09:25.987Z,15.10
2019-04-28T18:11:29.943Z,14.80
2019-04-28T18:13:33.884Z,15.00
2019-04-28T18:16:05.787Z,14.80
2019-04-28T18:18:28.742Z,14.70
2019-04-28T18:20:32.804Z,14.60
2019-04-28T18:22:36.652Z,14.50
2019-04-28T18:24:40.598Z,14.10
2019-04-28T18:26:44.567Z,13.70
2019-04-28T18:28:48.488Z,13.60
2019-04-28T18:31:14.795Z,13.20
2019-04-28T18:33:53.127Z,13.00
2019-04-28T18:36:06.111Z,12.70
2019-04-28T18:38:34.299Z,12.30
2019-04-28T18:40:46.335Z,12.20
2019-04-28T18:42:56.310Z,12.10
2019-04-28T18:45:00.238Z,11.90
2019-04-28T18:47:04.275Z,11.70
2019-04-28T18:49:08.132Z,11.70
2019-04-28T18:51:12.339Z,11.30
2019-04-28T18:53:17.368Z,11.40
2019-04-28T18:55:21.341Z,11.50
2019-04-28T18:57:26.679Z,11.40
2019-04-28T18:59:30.617Z,11.40
2019-04-28T19:01:42.139Z,11.30
2019-04-28T19:03:46.237Z,11.20
2019-04-28T19:05:51.797Z,11.00
2019-04-28T19:08:17.727Z,11.00
2019-04-28T19:10:33.185Z,11.10
2019-04-28T19:12:59.086Z,11.10
2019-04-28T19:15:18.802Z,11.10
2019-04-28T19:17:41.123Z,10.90
2019-04-28T19:19:45.151Z,11.00
2019-04-28T19:21:55.869Z,10.90
2019-04-28T19:23:59.844Z,10.90
2019-04-28T19:26:03.963Z,10.90
2019-04-28T19:28:08.141Z,10.80
2019-04-28T19:30:12.209Z,10.70
2019-04-28T19:32:16.147Z,10.70
2019-04-28T19:34:20.454Z,10.70
2019-04-28T19:36:24.367Z,10.70
2019-04-28T19:38:28.195Z,10.70
2019-04-28T19:40:32.034Z,10.60
2019-04-28T19:42:35.918Z,10.60
2019-04-28T19:44:39.756Z,10.60
2019-04-28T19:46:43.691Z,10.60
2019-04-28T19:48:47.654Z,10.60
2019-04-28T19:50:51.561Z,10.50
2019-04-28T19:52:56.449Z,10.50
2019-04-28T19:55:23.904Z,10.50
2019-04-28T19:57:38.761Z,10.50
2019-04-28T20:00:00.990Z,10.50
2019-04-28T20:02:06.019Z,10.20
2019-04-28T20:04:10.831Z,10.30
2019-04-28T20:06:15.946Z,10.10
2019-04-28T20:08:20.639Z,10.00
2019-04-28T20:10:25.614Z,10.00
2019-04-28T20:12:30.355Z,10.00
2019-04-28T20:14:37.757Z,10.10
2019-04-28T20:16:45.018Z,10.20
2019-04-28T20:18:51.135Z,10.10
2019-04-28T20:20:58.987Z,10.00
2019-04-28T20:23:02.891Z,10.10
2019-04-28T20:25:07.193Z,10.10
2019-04-28T20:27:11.231Z,10.10
2019-04-28T20:29:15.149Z,10.10
2019-04-28T20:31:19.131Z,10.20
2019-04-28T20:33:22.999Z,10.10
2019-04-28T20:35:30.211Z,10.10
2019-04-28T20:37:39.155Z,10.00
2019-04-28T20:39:45.249Z,10.00
2019-04-28T20:41:49.327Z,9.90
2019-04-28T20:43:54.483Z,10.00
2019-04-28T20:45:58.503Z,10.00
2019-04-28T20:48:02.331Z,9.80
2019-04-28T20:50:06.452Z,9.90
2019-04-28T20:52:10.312Z,9.80
2019-04-28T20:54:14.235Z,9.60
2019-04-28T20:56:18.247Z,9.50
2019-04-28T20:58:22.189Z,9.50
2019-04-28T21:00:26.035Z,9.40
2019-04-28T21:02:30.175Z,9.30
2019-04-28T21:04:33.988Z,9.50
2019-04-28T21:06:37.800Z,9.40
2019-04-28T21:08:41.776Z,9.40
2019-04-28T21:10:45.607Z,9.30
2019-04-28T21:12:49.558Z,9.30
2019-04-28T21:14:53.457Z,9.30
2019-04-28T21:16:57.394Z,9.40
2019-04-28T21:19:01.330Z,9.60
2019-04-28T21:21:05.259Z,9.60
2019-04-28T21:23:09.175Z,9.70
2019-04-28T21:25:13.163Z,9.70
2019-04-28T21:27:17.212Z,9.50
2019-04-28T21:29:21.041Z,9.40
2019-04-28T21:31:24.869Z,9.20
2019-04-28T21:33:28.832Z,9.10
2019-04-28T21:35:32.760Z,9.20
2019-04-28T21:37:36.623Z,9.20
2019-04-28T21:39:40.555Z,9.20
2019-04-28T21:41:44.467Z,9.10
2019-04-28T21:43:57.947Z,9.10
2019-04-28T21:46:21.149Z,9.00
2019-04-28T21:48:35.283Z,9.10
2019-04-28T21:50:39.167Z,9.00
2019-04-28T21:52:43.284Z,9.00
2019-04-28T21:54:47.247Z,8.90
2019-04-28T21:56:51.083Z,8.90
2019-04-28T21:58:54.967Z,9.00
2019-04-28T22:00:59.721Z,9.10
2019-04-28T22:03:03.760Z,8.90
2019-04-28T22:05:07.911Z,8.90
2019-04-28T22:07:12.147Z,8.90
2019-04-28T22:09:16.156Z,8.90
2019-04-28T22:11:20.113Z,8.90
2019-04-28T22:13:24.161Z,8.90
2019-04-28T22:15:28.148Z,8.90
2019-04-28T22:17:32.103Z,8.80
2019-04-28T22:19:36.084Z,8.80
2019-04-28T22:21:40.119Z,8.70
2019-04-28T22:24:08.195Z,8.80
2019-04-28T22:26:31.139Z,8.70
2019-04-28T22:28:34.999Z,8.50
2019-04-28T22:30:39.028Z,8.60
2019-04-28T22:32:42.842Z,8.50
2019-04-28T22:34:46.799Z,8.50
2019-04-28T22:36:50.804Z,8.40
2019-04-28T22:38:54.640Z,8.50
2019-04-28T22:40:58.530Z,8.50
2019-04-28T22:43:02.497Z,8.40
2019-04-28T22:45:07.468Z,8.40
2019-04-28T22:47:11.567Z,8.40
2019-04-28T22:49:15.903Z,8.50
2019-04-28T22:51:19.897Z,8.50
2019-04-28T22:53:29.316Z,8.40
2019-04-28T22:55:36.207Z,8.30
2019-04-28T22:57:55.987Z,8.30
2019-04-28T23:00:00.185Z,8.30
2019-04-28T23:02:12.043Z,8.40
2019-04-28T23:04:33.858Z,8.40
2019-04-28T23:06:37.955Z,8.30
2019-04-28T23:08:41.940Z,8.30
2019-04-28T23:10:45.886Z,8.30
2019-04-28T23:12:49.919Z,8.20
2019-04-28T23:14:53.803Z,8.20
2019-04-28T23:16:58.004Z,8.20
2019-04-28T23:19:03.914Z,8.20
2019-04-28T23:21:26.979Z,8.30
2019-04-28T23:23:30.905Z,8.30
2019-04-28T23:25:34.888Z,8.30
2019-04-28T23:27:38.906Z,8.30
2019-04-28T23:29:42.803Z,8.30
2019-04-28T23:31:46.715Z,8.40
2019-04-28T23:33:50.750Z,8.30
2019-04-28T23:35:54.697Z,8.30
2019-04-28T23:37:58.618Z,8.40
2019-04-28T23:40:02.625Z,8.40
2019-04-28T23:42:12.030Z,8.40
2019-04-28T23:44:15.951Z,8.40
2019-04-28T23:46:21.461Z,8.40
2019-04-28T23:48:25.371Z,8.40
2019-04-28T23:50:35.940Z,8.40
2019-04-28T23:52:51.327Z,8.30
2019-04-28T23:54:57.263Z,8.30
2019-04-28T23:57:01.087Z,8.20
2019-04-28T23:59:06.023Z,8.30
